createdAt,value
2022-08-10T00:01:41.762Z,17.10
2022-08-10T00:04:09.890Z,17.00
2022-08-10T00:06:49.351Z,17.00
2022-08-10T00:09:18.816Z,17.00
2022-08-10T00:11:46.859Z,16.90
2022-08-10T00:14:15.001Z,16.90
2022-08-10T00:16:44.858Z,16.90
2022-08-10T00:19:12.965Z,16.80
2022-08-10T00:21:45.345Z,16.80
2022-08-10T00:24:13.471Z,16.80
2022-08-10T00:27:58.743Z,16.80
2022-08-10T00:29:31.204Z,16.80
2022-08-10T00:31:59.729Z,16.80
2022-08-10T00:34:28.458Z,16.70
2022-08-10T00:36:56.661Z,16.70
2022-08-10T00:39:25.162Z,16.70
2022-08-10T00:42:01.967Z,16.60
2022-08-10T00:44:35.927Z,16.60
2022-08-10T00:47:04.067Z,16.60
2022-08-10T00:49:32.462Z,16.50
2022-08-10T00:52:01.086Z,16.50
2022-08-10T00:54:29.638Z,16.40
2022-08-10T00:57:16.538Z,16.40
2022-08-10T00:59:58.488Z,16.40
2022-08-10T01:02:28.764Z,16.40
2022-08-10T01:05:00.752Z,16.30
2022-08-10T01:07:54.403Z,16.20
2022-08-10T01:10:37.501Z,16.10
2022-08-10T01:13:14.217Z,16.00
2022-08-10T01:15:53.969Z,16.00
2022-08-10T01:18:33.689Z,16.00
2022-08-10T01:21:26.357Z,15.90
2022-08-10T01:24:09.909Z,15.90
2022-08-10T01:27:08.176Z,16.00
2022-08-10T01:29:51.062Z,15.90
2022-08-10T01:32:25.701Z,15.90
2022-08-10T01:34:59.732Z,15.90
2022-08-10T01:37:33.190Z,15.90
2022-08-10T01:40:04.370Z,15.80
2022-08-10T01:42:37.270Z,15.80
2022-08-10T01:45:10.169Z,15.80
2022-08-10T01:48:01.156Z,15.80
2022-08-10T01:50:33.101Z,15.80
2022-08-10T01:53:06.004Z,15.70
2022-08-10T01:55:36.071Z,15.70
2022-08-10T01:58:07.357Z,15.70
2022-08-10T02:00:39.694Z,15.70
2022-08-10T02:03:09.804Z,15.70
2022-08-10T02:05:41.044Z,15.60
2022-08-10T02:08:12.100Z,15.60
2022-08-10T02:10:41.399Z,15.60
2022-08-10T02:13:10.839Z,15.60
2022-08-10T02:16:01.154Z,15.50
2022-08-10T02:18:31.962Z,15.50
2022-08-10T02:21:04.329Z,15.50
2022-08-10T02:23:35.574Z,15.40
2022-08-10T02:26:05.882Z,15.40
2022-08-10T02:28:36.880Z,15.40
2022-08-10T02:31:11.463Z,15.30
2022-08-10T02:33:56.842Z,15.30
2022-08-10T02:36:28.886Z,15.30
2022-08-10T02:39:01.315Z,15.20
2022-08-10T02:45:15.498Z,15.20
2022-08-10T02:45:22.070Z,15.20
2022-08-10T02:47:26.793Z,15.20
2022-08-10T02:50:02.949Z,15.20
2022-08-10T02:52:37.197Z,15.20
2022-08-10T02:55:18.340Z,15.20
2022-08-10T02:58:17.484Z,15.20
2022-08-10T03:00:45.403Z,15.20
2022-08-10T03:03:20.233Z,15.20
2022-08-10T03:05:51.505Z,15.10
2022-08-10T03:08:22.782Z,15.10
2022-08-10T03:10:51.995Z,15.10
2022-08-10T03:13:21.621Z,15.10
2022-08-10T03:15:51.409Z,15.10
2022-08-10T03:18:24.578Z,15.00
2022-08-10T03:20:54.311Z,15.00
2022-08-10T03:23:25.711Z,15.00
2022-08-10T03:25:57.051Z,15.00
2022-08-10T03:28:29.054Z,15.00
2022-08-10T03:30:59.170Z,15.00
2022-08-10T03:33:31.292Z,14.90
2022-08-10T03:36:43.463Z,14.90
2022-08-10T03:38:51.543Z,14.90
2022-08-10T03:41:24.689Z,14.90
2022-08-10T03:43:54.262Z,14.80
2022-08-10T03:46:25.956Z,14.90
2022-08-10T03:48:59.202Z,14.80
2022-08-10T03:51:30.146Z,14.80
2022-08-10T03:54:02.856Z,14.80
2022-08-10T03:56:36.124Z,14.80
2022-08-10T03:59:05.024Z,14.80
2022-08-10T04:02:44.274Z,14.80
2022-08-10T04:04:25.068Z,14.70
2022-08-10T04:06:55.385Z,14.70
2022-08-10T04:09:24.442Z,14.70
2022-08-10T04:11:52.486Z,14.70
2022-08-10T04:14:38.064Z,14.80
2022-08-10T04:17:13.761Z,14.80
2022-08-10T04:19:47.822Z,14.70
2022-08-10T04:22:18.758Z,14.70
2022-08-10T04:24:49.430Z,14.80
2022-08-10T04:27:18.361Z,14.80
2022-08-10T04:29:47.521Z,14.90
2022-08-10T04:32:18.224Z,14.90
2022-08-10T04:34:48.645Z,14.90
2022-08-10T04:37:19.246Z,15.10
2022-08-10T04:39:47.470Z,15.20
2022-08-10T04:42:15.783Z,15.20
2022-08-10T04:44:44.316Z,15.30
2022-08-10T04:47:12.363Z,15.40
2022-08-10T04:49:56.413Z,15.40
2022-08-10T04:52:26.417Z,15.40
2022-08-10T04:54:54.545Z,15.50
2022-08-10T04:57:22.617Z,15.60
2022-08-10T04:59:50.970Z,15.60
2022-08-10T05:02:28.631Z,15.70
2022-08-10T05:05:00.182Z,15.80
2022-08-10T05:07:29.616Z,15.90
2022-08-10T05:10:02.949Z,16.00
2022-08-10T05:12:37.176Z,16.20
2022-08-10T05:15:08.407Z,16.30
2022-08-10T05:17:37.249Z,16.40
2022-08-10T05:20:07.641Z,16.50
2022-08-10T05:22:40.638Z,16.60
2022-08-10T05:25:11.527Z,16.70
2022-08-10T05:27:39.894Z,16.90
2022-08-10T05:30:09.470Z,17.10
2022-08-10T05:32:56.506Z,17.20
2022-08-10T05:35:26.642Z,17.40
2022-08-10T05:38:08.860Z,17.60
2022-08-10T05:40:47.483Z,17.80
2022-08-10T05:43:18.651Z,18.00
2022-08-10T05:46:17.101Z,18.10
2022-08-10T05:48:56.966Z,18.20
2022-08-10T05:51:24.423Z,18.50
2022-08-10T05:54:01.106Z,18.70
2022-08-10T05:56:56.380Z,19.00
2022-08-10T06:00:31.106Z,19.20
2022-08-10T06:02:41.306Z,19.30
2022-08-10T06:05:09.712Z,19.60
2022-08-10T06:07:45.926Z,19.80
2022-08-10T06:10:31.600Z,19.90
2022-08-10T06:13:19.469Z,20.20
2022-08-10T06:16:01.666Z,20.40
2022-08-10T06:18:30.813Z,20.50
2022-08-10T06:20:59.082Z,20.70
2022-08-10T06:23:29.348Z,20.80
2022-08-10T06:26:09.709Z,21.00
2022-08-10T06:29:02.140Z,21.10
2022-08-10T06:31:48.521Z,21.30
2022-08-10T06:34:21.611Z,21.50
2022-08-10T06:36:50.227Z,21.80
2022-08-10T06:39:35.197Z,21.70
2022-08-10T06:42:16.675Z,21.80
2022-08-10T06:44:55.417Z,22.10
2022-08-10T06:47:29.853Z,22.30
2022-08-10T06:50:08.531Z,22.50
2022-08-10T06:52:38.062Z,22.70
2022-08-10T06:55:09.186Z,23.10
2022-08-10T06:57:42.426Z,23.70
2022-08-10T07:00:19.710Z,24.00
2022-08-10T07:02:53.732Z,23.80
2022-08-10T07:05:24.189Z,24.00
2022-08-10T07:07:55.383Z,24.30
2022-08-10T07:10:45.417Z,24.30
2022-08-10T07:14:15.458Z,24.30
2022-08-10T07:16:09.347Z,24.40
2022-08-10T07:18:38.408Z,24.50
2022-08-10T07:21:08.247Z,24.60
2022-08-10T07:23:57.782Z,24.70
2022-08-10T07:26:25.994Z,24.80
2022-08-10T07:28:56.295Z,24.70
2022-08-10T07:31:54.419Z,24.80
2022-08-10T07:34:28.681Z,24.90
2022-08-10T07:37:01.834Z,25.10
2022-08-10T07:39:58.276Z,25.10
2022-08-10T07:42:22.742Z,25.40
2022-08-10T07:44:52.568Z,25.70
2022-08-10T07:47:52.357Z,25.90
2022-08-10T07:50:15.848Z,26.00
2022-08-10T07:52:44.774Z,26.20
2022-08-10T07:55:16.545Z,26.30
2022-08-10T07:57:47.493Z,26.60
2022-08-10T08:00:18.281Z,26.60
2022-08-10T08:02:50.640Z,26.80
2022-08-10T08:05:38.578Z,26.90
2022-08-10T08:08:11.758Z,26.90
2022-08-10T08:10:40.125Z,26.90
2022-08-10T08:13:09.165Z,26.90
2022-08-10T08:16:21.231Z,27.10
2022-08-10T08:18:29.990Z,27.00
2022-08-10T08:20:58.646Z,27.40
2022-08-10T08:24:04.355Z,27.30
2022-08-10T08:26:20.646Z,27.40
2022-08-10T08:28:50.256Z,27.60
2022-08-10T08:31:20.901Z,27.40
2022-08-10T08:33:50.401Z,27.50
2022-08-10T08:36:20.758Z,27.20
2022-08-10T08:38:49.622Z,27.30
2022-08-10T08:41:51.077Z,27.40
2022-08-10T08:44:34.248Z,27.70
2022-08-10T08:48:03.119Z,28.10
2022-08-10T08:50:33.818Z,28.40
2022-08-10T08:53:22.215Z,28.70
2022-08-10T08:56:05.370Z,28.80
2022-08-10T08:58:49.445Z,29.20
2022-08-10T09:01:40.174Z,29.10
2022-08-10T09:04:25.038Z,29.30
2022-08-10T09:08:01.263Z,29.50
2022-08-10T09:10:26.140Z,29.80
2022-08-10T09:13:05.311Z,29.90
2022-08-10T09:15:41.610Z,30.10
2022-08-10T09:18:20.307Z,30.00
2022-08-10T09:20:54.810Z,30.10
2022-08-10T09:24:05.324Z,30.10
2022-08-10T09:26:21.511Z,30.30
2022-08-10T09:29:12.798Z,30.50
2022-08-10T09:33:06.042Z,30.50
2022-08-10T09:36:22.289Z,30.90
2022-08-10T09:38:01.881Z,31.00
2022-08-10T09:40:59.008Z,31.10
2022-08-10T09:43:37.224Z,31.20
2022-08-10T09:46:15.117Z,31.20
2022-08-10T09:48:51.366Z,31.50
2022-08-10T09:51:47.145Z,31.80
2022-08-10T09:54:52.110Z,31.90
2022-08-10T09:57:54.835Z,31.60
2022-08-10T10:00:21.114Z,32.20
2022-08-10T10:03:04.540Z,32.00
2022-08-10T10:05:51.311Z,32.20
2022-08-10T10:08:28.935Z,31.60
2022-08-10T10:11:10.679Z,31.20
2022-08-10T10:14:03.914Z,30.80
2022-08-10T10:16:44.533Z,31.10
2022-08-10T10:19:25.598Z,31.50
2022-08-10T10:22:05.244Z,31.50
2022-08-10T10:24:42.315Z,31.20
2022-08-10T10:27:27.657Z,31.40
2022-08-10T10:30:04.025Z,31.80
2022-08-10T10:32:45.858Z,32.30
2022-08-10T10:35:25.557Z,32.50
2022-08-10T10:38:01.027Z,32.50
2022-08-10T10:40:36.209Z,32.70
2022-08-10T10:43:12.430Z,32.50
2022-08-10T10:45:52.464Z,32.40
2022-08-10T10:48:27.563Z,32.40
2022-08-10T10:51:10.921Z,32.70
2022-08-10T10:53:48.707Z,32.70
2022-08-10T10:56:27.150Z,32.30
2022-08-10T10:59:53.719Z,32.60
2022-08-10T11:02:06.337Z,32.70
2022-08-10T11:04:43.539Z,33.20
2022-08-10T11:07:17.862Z,33.10
2022-08-10T11:10:04.504Z,33.10
2022-08-10T11:12:51.070Z,32.90
2022-08-10T11:15:28.393Z,32.50
2022-08-10T11:18:02.368Z,32.50
2022-08-10T11:20:38.213Z,32.90
2022-08-10T11:23:20.070Z,33.30
2022-08-10T11:25:56.880Z,33.60
2022-08-10T11:28:37.107Z,33.40
2022-08-10T11:31:14.262Z,33.20
2022-08-10T11:34:11.565Z,33.00
2022-08-10T11:36:43.655Z,32.50
2022-08-10T11:39:19.196Z,32.10
2022-08-10T11:42:09.752Z,32.30
2022-08-10T11:44:50.398Z,32.70
2022-08-10T11:47:23.267Z,32.90
2022-08-10T11:49:56.709Z,33.00
2022-08-10T11:52:35.424Z,33.20
2022-08-10T11:55:11.007Z,32.40
2022-08-10T11:58:00.863Z,32.70
2022-08-10T12:00:32.640Z,32.80
2022-08-10T12:03:06.938Z,32.60
2022-08-10T12:05:51.786Z,32.50
2022-08-10T12:10:07.177Z,32.10
2022-08-10T12:11:24.331Z,31.90
2022-08-10T12:16:52.359Z,31.00
2022-08-10T12:19:28.514Z,30.90
2022-08-10T12:22:05.821Z,30.90
2022-08-10T12:24:39.342Z,30.70
2022-08-10T12:27:13.257Z,30.90
2022-08-10T12:29:47.160Z,30.90
2022-08-10T12:32:25.738Z,30.70
2022-08-10T12:35:02.242Z,30.20
2022-08-10T12:37:34.693Z,30.30
2022-08-10T12:40:35.294Z,30.30
2022-08-10T12:44:03.761Z,30.20
2022-08-10T12:46:10.660Z,30.40
2022-08-10T12:48:49.327Z,30.20
2022-08-10T12:51:22.489Z,30.10
2022-08-10T12:53:56.406Z,30.20
2022-08-10T12:56:28.547Z,30.10
2022-08-10T12:59:01.508Z,29.80
2022-08-10T13:02:09.785Z,29.60
2022-08-10T13:04:29.688Z,29.70
2022-08-10T13:07:01.722Z,29.70
2022-08-10T13:09:30.679Z,29.30
2022-08-10T13:12:38.855Z,29.20
2022-08-10T13:14:56.030Z,29.10
2022-08-10T13:17:38.859Z,28.80
2022-08-10T13:20:17.145Z,28.50
2022-08-10T13:22:55.206Z,28.30
2022-08-10T13:25:30.921Z,28.60
2022-08-10T13:28:36.563Z,28.80
2022-08-10T13:30:57.005Z,28.90
2022-08-10T13:34:03.801Z,29.00
2022-08-10T13:36:21.551Z,28.50
2022-08-10T13:38:55.900Z,28.70
2022-08-10T13:41:28.705Z,28.70
2022-08-10T13:43:59.851Z,28.70
2022-08-10T13:46:29.040Z,28.70
2022-08-10T13:49:00.922Z,28.40
2022-08-10T13:51:54.081Z,28.40
2022-08-10T13:54:22.985Z,28.40
2022-08-10T13:56:52.900Z,28.50
2022-08-10T13:59:22.488Z,28.60
2022-08-10T14:01:53.270Z,28.30
2022-08-10T14:04:21.793Z,27.90
2022-08-10T14:06:54.240Z,27.90
2022-08-10T14:09:30.063Z,27.90
2022-08-10T14:11:59.793Z,27.90
2022-08-10T14:14:30.299Z,27.70
2022-08-10T14:16:59.480Z,27.70
2022-08-10T14:19:30.914Z,27.60
2022-08-10T14:22:01.169Z,27.60
2022-08-10T14:24:32.499Z,27.50
2022-08-10T14:27:06.719Z,27.30
2022-08-10T14:29:42.546Z,27.30
2022-08-10T14:32:12.522Z,27.20
2022-08-10T14:36:16.225Z,27.20
2022-08-10T14:37:38.165Z,27.20
2022-08-10T14:40:14.188Z,27.00
2022-08-10T14:42:48.197Z,27.00
2022-08-10T14:45:23.029Z,27.10
2022-08-10T14:47:59.619Z,27.10
2022-08-10T14:50:33.576Z,27.10
2022-08-10T14:53:09.439Z,27.00
2022-08-10T14:55:58.996Z,27.10
2022-08-10T14:58:31.422Z,26.90
2022-08-10T15:00:59.924Z,26.80
2022-08-10T15:03:58.894Z,26.80
2022-08-10T15:06:30.789Z,26.70
2022-08-10T15:09:18.872Z,26.60
2022-08-10T15:12:15.756Z,26.50
2022-08-10T15:14:43.498Z,26.60
2022-08-10T15:17:17.318Z,26.50
2022-08-10T15:20:03.459Z,26.60
2022-08-10T15:22:50.154Z,26.60
2022-08-10T15:25:24.283Z,26.60
2022-08-10T15:28:05.011Z,26.50
2022-08-10T15:30:40.735Z,26.50
2022-08-10T15:33:59.389Z,26.40
2022-08-10T15:36:37.384Z,26.40
2022-08-10T15:39:12.767Z,26.40
2022-08-10T15:42:00.781Z,26.40
2022-08-10T15:44:43.281Z,26.40
2022-08-10T15:47:15.457Z,26.30
2022-08-10T15:49:52.735Z,26.20
2022-08-10T15:53:01.320Z,26.10
2022-08-10T15:55:41.298Z,26.20
2022-08-10T15:58:08.130Z,26.10
2022-08-10T16:00:44.801Z,26.10
2022-08-10T16:03:17.879Z,26.00
2022-08-10T16:06:01.441Z,26.10
2022-08-10T16:08:56.044Z,26.10
2022-08-10T16:11:37.679Z,26.10
2022-08-10T16:14:17.835Z,26.10
2022-08-10T16:16:54.004Z,26.00
2022-08-10T16:19:25.796Z,26.00
2022-08-10T16:22:02.724Z,26.00
2022-08-10T16:24:51.551Z,25.90
2022-08-10T16:27:23.650Z,25.90
2022-08-10T16:29:58.481Z,25.90
2022-08-10T16:32:30.384Z,25.90
2022-08-10T16:35:00.479Z,25.80
2022-08-10T16:37:58.274Z,25.80
2022-08-10T16:40:25.321Z,25.70
2022-08-10T16:42:55.094Z,25.70
2022-08-10T16:45:30.757Z,25.70
2022-08-10T16:48:01.554Z,25.70
2022-08-10T16:50:33.182Z,25.60
2022-08-10T16:53:03.398Z,25.60
2022-08-10T16:55:48.541Z,25.60
2022-08-10T16:58:21.897Z,25.60
2022-08-10T17:00:51.482Z,25.60
2022-08-10T17:04:07.620Z,25.60
2022-08-10T17:06:22.325Z,25.50
2022-08-10T17:08:53.158Z,25.60
2022-08-10T17:11:24.269Z,25.50
2022-08-10T17:13:57.070Z,25.50
2022-08-10T17:16:26.760Z,25.50
2022-08-10T17:18:57.736Z,25.50
2022-08-10T17:21:31.210Z,25.50
2022-08-10T17:24:03.597Z,25.50
2022-08-10T17:26:36.967Z,25.40
2022-08-10T17:29:53.545Z,25.30
2022-08-10T17:32:06.367Z,25.30
2022-08-10T17:34:39.354Z,25.20
2022-08-10T17:37:16.473Z,25.20
2022-08-10T17:39:49.806Z,25.20
2022-08-10T17:42:24.145Z,25.20
2022-08-10T17:44:54.134Z,25.10
2022-08-10T17:47:27.464Z,25.10
2022-08-10T17:49:58.972Z,25.00
2022-08-10T17:52:31.519Z,25.00
2022-08-10T17:55:04.056Z,25.00
2022-08-10T17:57:37.453Z,24.90
2022-08-10T18:00:08.930Z,24.90
2022-08-10T18:02:40.100Z,24.80
2022-08-10T18:05:11.780Z,24.80
2022-08-10T18:07:46.499Z,24.70
2022-08-10T18:10:17.649Z,24.70
2022-08-10T18:12:47.666Z,24.60
2022-08-10T18:15:20.041Z,24.60
2022-08-10T18:17:51.097Z,24.50
2022-08-10T18:20:28.120Z,24.50
2022-08-10T18:22:58.226Z,24.40
2022-08-10T18:25:30.359Z,24.40
2022-08-10T18:28:04.988Z,24.30
2022-08-10T18:30:37.287Z,24.30
2022-08-10T18:33:11.858Z,24.20
2022-08-10T18:35:42.762Z,24.10
2022-08-10T18:38:12.859Z,24.10
2022-08-10T18:40:45.012Z,24.00
2022-08-10T18:44:09.877Z,24.00
2022-08-10T18:46:09.448Z,23.90
2022-08-10T18:48:41.476Z,23.80
2022-08-10T18:51:12.972Z,23.80
2022-08-10T18:53:48.236Z,23.70
2022-08-10T18:56:34.039Z,23.60
2022-08-10T18:59:14.795Z,23.50
2022-08-10T19:02:06.297Z,23.40
2022-08-10T19:04:53.898Z,23.30
2022-08-10T19:07:39.396Z,23.30
2022-08-10T19:10:15.360Z,23.20
2022-08-10T19:12:51.620Z,23.10
2022-08-10T19:15:27.014Z,23.10
2022-08-10T19:18:08.127Z,23.00
2022-08-10T19:20:44.802Z,23.00
2022-08-10T19:23:28.487Z,22.90
2022-08-10T19:26:41.015Z,22.80
2022-08-10T19:29:01.747Z,22.80
2022-08-10T19:31:44.788Z,22.70
2022-08-10T19:34:34.222Z,22.60
2022-08-10T19:37:15.290Z,22.60
2022-08-10T19:39:59.844Z,22.50
2022-08-10T19:42:33.674Z,22.40
2022-08-10T19:45:12.473Z,22.40
2022-08-10T19:48:10.070Z,22.40
2022-08-10T19:50:44.915Z,22.40
2022-08-10T19:53:25.105Z,22.30
2022-08-10T19:56:24.229Z,22.20
2022-08-10T19:59:01.284Z,22.20
2022-08-10T20:01:54.458Z,22.10
2022-08-10T20:04:29.585Z,22.10
2022-08-10T20:07:10.150Z,22.10
2022-08-10T20:09:44.959Z,22.00
2022-08-10T20:12:21.263Z,21.90
2022-08-10T20:14:59.939Z,22.00
2022-08-10T20:17:51.120Z,21.90
2022-08-10T20:20:30.482Z,21.80
2022-08-10T20:23:09.392Z,21.80
2022-08-10T20:25:37.608Z,21.80
2022-08-10T20:28:19.614Z,21.80
2022-08-10T20:30:52.908Z,21.70
2022-08-10T20:33:28.662Z,21.60
2022-08-10T20:36:04.257Z,21.60
2022-08-10T20:38:39.270Z,21.50
2022-08-10T20:41:22.801Z,21.50
2022-08-10T20:44:04.631Z,21.40
2022-08-10T20:46:38.702Z,21.30
2022-08-10T20:49:16.821Z,21.20
2022-08-10T20:51:57.360Z,21.20
2022-08-10T20:54:34.477Z,21.10
2022-08-10T20:57:54.165Z,21.00
2022-08-10T21:00:17.185Z,20.90
2022-08-10T21:03:15.998Z,20.90
2022-08-10T21:05:59.989Z,20.80
2022-08-10T21:08:43.933Z,20.80
2022-08-10T21:11:19.425Z,20.80
2022-08-10T21:14:17.830Z,20.80
2022-08-10T21:17:06.325Z,20.80
2022-08-10T21:20:12.219Z,20.80
2022-08-10T21:22:43.171Z,20.70
2022-08-10T21:25:17.032Z,20.70
2022-08-10T21:28:07.529Z,20.70
2022-08-10T21:30:55.183Z,20.60
2022-08-10T21:33:36.397Z,20.50
2022-08-10T21:36:12.596Z,20.40
2022-08-10T21:38:49.093Z,20.40
2022-08-10T21:41:56.998Z,20.40
2022-08-10T21:45:08.183Z,20.40
2022-08-10T21:48:17.346Z,20.30
2022-08-10T21:51:14.742Z,20.40
2022-08-10T21:54:08.706Z,20.40
2022-08-10T21:57:00.701Z,20.30
2022-08-10T21:59:51.168Z,20.30
2022-08-10T22:02:49.774Z,20.20
2022-08-10T22:08:49.639Z,20.20
2022-08-10T22:11:38.127Z,20.10
2022-08-10T22:14:27.199Z,20.10
2022-08-10T22:17:59.136Z,20.00
2022-08-10T22:20:33.061Z,20.00
2022-08-10T22:23:41.600Z,19.90
2022-08-10T22:26:41.106Z,19.90
2022-08-10T22:29:42.493Z,19.80
2022-08-10T22:31:28.961Z,20.20
2022-08-10T22:32:38.958Z,19.70
2022-08-10T22:35:57.630Z,19.70
2022-08-10T22:39:00.211Z,19.60
2022-08-10T22:41:55.327Z,19.60
2022-08-10T22:44:43.735Z,19.50
2022-08-10T22:47:32.235Z,19.50
2022-08-10T22:50:03.371Z,19.50
2022-08-10T22:53:02.771Z,19.40
2022-08-10T22:55:52.667Z,19.40
2022-08-10T22:58:42.192Z,19.30
2022-08-10T23:01:35.769Z,19.40
2022-08-10T23:04:11.440Z,19.30
2022-08-10T23:06:41.414Z,19.20
2022-08-10T23:09:13.685Z,19.20
2022-08-10T23:11:45.037Z,19.20
2022-08-10T23:14:23.613Z,19.10
2022-08-10T23:17:12.738Z,19.00
2022-08-10T23:19:45.534Z,19.00
2022-08-10T23:22:16.557Z,19.00
2022-08-10T23:24:48.392Z,18.90
2022-08-10T23:27:37.476Z,18.90
2022-08-10T23:30:17.620Z,18.90
2022-08-10T23:32:49.836Z,18.80
2022-08-10T23:36:13.148Z,18.80
2022-08-10T23:38:09.809Z,18.70
2022-08-10T23:40:38.749Z,18.70
2022-08-10T23:43:08.567Z,18.70
2022-08-10T23:45:52.985Z,18.60
2022-08-10T23:48:24.979Z,18.60
2022-08-10T23:50:59.199Z,18.50
2022-08-10T23:53:31.249Z,18.50
2022-08-10T23:56:02.058Z,18.50
2022-08-10T23:58:40.992Z,18.50
